Tuesday, December 18, 2018, 4:18 PM EST
Back to Local

KHFD, Hartford-brainard Airport

Location: Hartford, CT, United States Lat: 41.733
Local Time: 4:18 PM EST (21:18 GMT) Lon: -72.65
Time Zone: US/Eastern Elev: 19 ft

Show me the last for .
Show Decoded

2018-12-18 15:53 METAR KHFD 182053Z 30010KT 10SM CLR M01/M13 A3004 RMK AO2 SLP171 T10111128 53022
                 $ =
2018-12-18 14:53 METAR KHFD 181953Z 30012G20KT 10SM CLR M01/M13 A3000 RMK AO2 SLP158 T10061128 $
                 =
2018-12-18 13:53 METAR KHFD 181853Z 33010G18KT 10SM CLR 00/M13 A2999 RMK AO2 SLP155 T00001128 $ =
2018-12-18 12:53 METAR KHFD 181753Z 34013G22KT 10SM CLR M01/M13 A2997 RMK AO2 PK WND 35026/1659
                 SLP150 T10061128 11006 21044 53000 $ =
2018-12-18 11:53 METAR KHFD 181653Z 31010G24KT 10SM CLR M01/M13 A2997 RMK AO2 PK WND 33028/1604
                 SLP147 T10061128 $ =
2018-12-18 10:53 METAR KHFD 181553Z 34014G23KT 10SM CLR M02/M13 A2997 RMK AO2 SLP148 T10171133 $
                 =
2018-12-18 09:53 METAR KHFD 181453Z 34014G21KT 10SM CLR M03/M13 A2997 RMK AO2 PK WND 33034/1411
                 SLP149 T10281133 51022 $ =
2018-12-18 08:53 METAR KHFD 181353Z 32017G28KT 10SM CLR M04/M14 A2996 RMK AO2 PK WND 31032/1328
                 SLP144 T10391139 $ =
2018-12-18 07:53 METAR KHFD 181253Z 32015G21KT 10SM FEW044 M04/M13 A2994 RMK AO2 PK WND
                 32027/1201 SLP138 T10441133 $ =
2018-12-18 06:53 METAR KHFD 181153Z 32013G26KT 10SM FEW046 M04/M13 A2991 RMK AO2 PK WND
                 31031/1128 SLP127 T10441133 10017 21044 51027 $ =
2018-12-18 05:53 METAR KHFD 181053Z 33014G25KT 10SM FEW046 M04/M13 A2988 RMK AO2 PK WND
                 34030/1018 SLP119 T10391133 $ =
2018-12-18 04:53 METAR KHFD 180953Z AUTO 32016G22KT CLR M04/M13 A2985 RMK AO2 PK WND 32028/0857
                 SLP109 T10391133 $ =
2018-12-18 03:53 METAR KHFD 180853Z AUTO 32014G26KT CLR M03/M12 A2983 RMK AO2 PK WND 32033/0827
                 SLP100 T10331122 53039 $ =
2018-12-18 02:53 METAR KHFD 180753Z AUTO 32018G30KT 10SM BKN043 OVC050 M02/M12 A2979 RMK AO2 PK
                 WND 32033/0738 SLP086 T10171117 $ =
2018-12-18 01:53 METAR KHFD 180653Z AUTO 31016G28KT OVC049 01/M09 A2974 RMK AO2 PK WND 35034/0633
                 SLP070 T00061094 $ =
2018-12-18 00:53 METAR KHFD 180553Z AUTO 31022G30KT BKN055 BKN070 02/M08 A2971 RMK AO2 PK WND
                 29035/0538 SLP061 T00171083 10044 20017 53013 $ =
2018-12-17 23:53 METAR KHFD 180453Z 30018G28KT 10SM SCT041 OVC060 03/M06 A2969 RMK AO2 PK WND
                 32032/0426 SLP054 T00281061 400670022 $ =
2018-12-17 22:53 METAR KHFD 180353Z 29009KT 10SM BKN044 OVC080 04/M03 A2966 RMK AO2 SLP045
                 T00391033 $ =
2018-12-17 21:53 METAR KHFD 180253Z 28006KT 10SM FEW033 BKN040 OVC085 03/M01 A2967 RMK AO2 SLP048
                 T00281011 50001 $ =
2018-12-17 20:53 METAR KHFD 180153Z 31011G20KT BKN041 BKN049 OVC080 04/M03 A2968 RMK AO2 SLP050
                 T00441028 $ =
2018-12-17 19:53 METAR KHFD 180053Z 30009G19KT 10SM OVC080 04/M03 A2967 RMK AO2 SLP048 T00441028
                 $ =
2018-12-17 18:53 METAR KHFD 172353Z 30010G18KT 10SM SCT039 OVC075 04/M03 A2967 RMK AO2 SLP047
                 T00441033 10067 20044 51015 $ =
2018-12-17 17:53 METAR KHFD 172253Z 30010G20KT 10SM SCT042 BKN050 04/M03 A2966 RMK AO2 SLP043
                 T00441028 $ =
2018-12-17 16:53 METAR KHFD 172153Z 31008KT 10SM SCT042 BKN049 OVC060 05/M03 A2965 RMK AO2 SLP039
                 T00501028 $ =

Support USWX by starting your Amazon purchase here.